River Forest, IL

3:26 PM CDT on May 22, 2015 (GMT -0500)
Oak Park | | Change Station
CLOSE
Current Station
Personal Weather Station
Location: Oak Park, IL
Elevation: 633 ft
Nearby Weather Stations

Elev 633 ft 41.91 °N, 87.80 °W | Updated 5 seconds ago

Partly Cloudy
Partly Cloudy
65.8 °F
Feels Like 65.8 °F
N
0.0
Wind Variable Wind from ENE
Gusts 0.0 mph

Today
High -- | Low -- °F
--% Chance of Precip.
Yesterday
High -- | Low -- °F
Precip. -- in
5:25 AM 8:11 PM
Waxing Crescent, 23% visible
Pressure 30.25 in
Visibility 10.0 miles
Clouds Few 6500 ft
Scattered Clouds 25000 ft
Dew Point 25 °F
Humidity 21%
Rainfall 0.00 in
Snow Depth Not available.
UV 7 out of 12
Pollen 8.00 out of 12
Air Quality Not available.
Flu Activity Local Activity
METAR KORD 221951Z 07008KT 10SM FEW065 SCT250 19/M02 A3024 RMK AO2 SLP241 T01891017

More Conditions Fewer Conditions

Pressure 30.25 in
Visibility 10.0 miles
Clouds Few 6500 ft
Scattered Clouds 25000 ft
Dew Point 25 °F
Humidity 21%
Rainfall 0.00 in
Snow Depth Not available.
UV 7 out of 12
Pollen 8.00 out of 12
Air Quality Not available.
Flu Activity Local Activity
METAR KORD 221951Z 07008KT 10SM FEW065 SCT250 19/M02 A3024 RMK AO2 SLP241 T01891017

More Conditions Fewer Conditions

10-Day Weather Forecast

Almanac

Astronomy

May. 22, 2015 Rise Set
Actual Time
Civil Twilight
Nautical Twilight
Astronomical Twilight
Moon
Length of Visible Light
Length of Day
Tomorrow will be .
, % of the Moon is Illuminated

Today's Extremes

State Highs State Lows

Community

WunderPhotos

Upload Photos

1,823,288 photos uploaded!

WunderBlogs® & News

Nearby

Air Quality

  Air Quality AQ Index Pollutant
Not available.

Snow Depth

Station Depth Elevation

Earthquake Activity

City Distance Mag. Time & Date
Minimum magnitude displayed is 2.5.

Coastal Water Temperatures

Place Temperature

Stations

Nearby Weather Stations

Station Location Temp. Windchill Dew Point Humidity Wind Precip. Elev Updated Type